createdAt,value
2018-09-21T00:04:43.502Z,6.42
2018-09-21T00:10:47.053Z,5.87
2018-09-21T00:16:50.562Z,5.17
2018-09-21T00:22:53.974Z,6.23
2018-09-21T00:28:57.593Z,9.23
2018-09-21T00:35:01.243Z,5.33
2018-09-21T00:47:43.206Z,6.30
2018-09-21T00:53:47.824Z,7.40
2018-09-21T00:59:51.335Z,5.27
2018-09-21T01:05:54.743Z,4.20
2018-09-21T01:11:58.654Z,5.50
2018-09-21T01:18:02.345Z,4.80
2018-09-21T01:24:06.181Z,5.87
2018-09-21T01:30:10.246Z,7.30
2018-09-21T01:36:14.225Z,5.77
2018-09-21T01:42:17.909Z,4.40
2018-09-21T01:48:21.621Z,4.83
2018-09-21T01:54:25.746Z,9.73
2018-09-21T02:00:29.246Z,6.90
2018-09-21T02:06:33.380Z,6.00
2018-09-21T02:12:37.090Z,4.97
2018-09-21T02:18:40.730Z,5.00
2018-09-21T02:24:44.956Z,4.70
2018-09-21T02:30:51.741Z,4.40
2018-09-21T02:36:55.464Z,4.00
2018-09-21T02:43:05.335Z,7.57
2018-09-21T02:49:09.351Z,5.27
2018-09-21T02:55:13.457Z,4.80
2018-09-21T03:01:21.584Z,5.53
2018-09-21T03:07:25.861Z,5.00
2018-09-21T03:13:29.260Z,6.10
2018-09-21T03:19:32.814Z,5.43
2018-09-21T03:25:36.301Z,6.30
2018-09-21T03:31:39.957Z,5.87
2018-09-21T03:37:43.766Z,6.73
2018-09-21T03:43:47.499Z,7.08
2018-09-21T03:49:51.254Z,7.85
2018-09-21T03:55:56.552Z,7.17
2018-09-21T04:02:00.455Z,4.83
2018-09-21T04:08:04.350Z,5.60
2018-09-21T04:14:07.730Z,5.73
2018-09-21T04:20:11.873Z,8.25
2018-09-21T04:26:15.382Z,7.72
2018-09-21T04:32:19.200Z,10.10
2018-09-21T04:38:22.593Z,6.85
2018-09-21T04:44:26.105Z,6.95
2018-09-21T04:50:31.013Z,5.92
2018-09-21T04:56:35.105Z,8.63
2018-09-21T05:02:38.881Z,7.05
2018-09-21T05:08:43.191Z,14.23
2018-09-21T05:14:47.556Z,7.87
2018-09-21T05:20:51.889Z,9.78
2018-09-21T05:26:55.722Z,10.50
2018-09-21T05:32:59.407Z,12.23
2018-09-21T05:39:03.471Z,13.05
2018-09-21T05:45:07.369Z,10.20
2018-09-21T05:51:10.986Z,9.20
2018-09-21T05:57:14.433Z,8.65
2018-09-21T06:03:18.240Z,11.05
2018-09-21T06:09:22.405Z,9.45
2018-09-21T06:15:26.723Z,8.00
2018-09-21T06:21:31.259Z,5.90
2018-09-21T06:27:36.156Z,9.35
2018-09-21T06:33:41.010Z,5.55
2018-09-21T06:39:44.570Z,11.93
2018-09-21T06:45:48.385Z,12.65
2018-09-21T06:51:52.201Z,4.35
2018-09-21T06:57:56.099Z,4.78
2018-09-21T07:04:00.521Z,4.50
2018-09-21T07:10:05.293Z,3.95
2018-09-21T07:16:09.759Z,9.13
2018-09-21T07:22:14.518Z,7.85
2018-09-21T07:28:18.047Z,7.65
2018-09-21T07:34:22.794Z,6.40
2018-09-21T07:40:26.393Z,6.15
2018-09-21T07:46:30.181Z,6.35
2018-09-21T07:52:33.826Z,7.90
2018-09-21T07:58:38.446Z,3.67
2018-09-21T08:04:42.165Z,7.08
2018-09-21T08:10:45.668Z,5.72
2018-09-21T08:16:49.268Z,7.45
2018-09-21T08:22:54.871Z,4.67
2018-09-21T08:28:58.647Z,9.80
2018-09-21T08:35:02.126Z,11.30
2018-09-21T08:41:06.187Z,7.42
2018-09-21T08:47:10.038Z,9.10
2018-09-21T08:53:13.463Z,2.63
2018-09-21T08:59:19.838Z,4.03
2018-09-21T09:05:25.325Z,3.97
2018-09-21T09:11:28.958Z,3.33
2018-09-21T09:17:33.612Z,5.67
2018-09-21T09:23:38.327Z,5.50
2018-09-21T09:29:41.974Z,10.53
2018-09-21T09:35:45.491Z,8.67
2018-09-21T09:41:49.609Z,4.90
2018-09-21T09:47:53.341Z,4.20
2018-09-21T09:53:57.251Z,6.30
2018-09-21T10:00:01.056Z,4.87
2018-09-21T10:06:05.318Z,6.77
2018-09-21T10:12:08.855Z,5.67
2018-09-21T10:18:12.650Z,7.43
2018-09-21T10:24:16.047Z,9.77
2018-09-21T10:30:19.483Z,8.30
2018-09-21T10:36:22.936Z,8.03
2018-09-21T10:42:27.216Z,13.83
2018-09-21T10:48:31.202Z,6.97
2018-09-21T10:54:35.541Z,7.73
2018-09-21T11:00:45.546Z,9.00
2018-09-21T11:06:49.792Z,9.70
2018-09-21T11:12:53.852Z,7.67
2018-09-21T11:18:57.206Z,12.10
2018-09-21T11:25:00.671Z,11.53
2018-09-21T11:31:04.246Z,9.93
2018-09-21T11:37:07.639Z,9.07
2018-09-21T11:43:11.158Z,8.40
2018-09-21T11:49:14.536Z,8.20
2018-09-21T11:55:18.005Z,5.27
2018-09-21T12:01:21.620Z,9.30
2018-09-21T12:07:25.311Z,11.67
2018-09-21T12:13:30.664Z,11.00
2018-09-21T12:19:34.238Z,5.33
2018-09-21T12:25:38.363Z,5.93
2018-09-21T12:31:41.983Z,6.37
2018-09-21T12:37:45.369Z,3.90
2018-09-21T12:43:48.975Z,2.93
2018-09-21T12:49:52.489Z,4.73
2018-09-21T12:55:55.934Z,1.93
2018-09-21T13:01:59.438Z,3.07
2018-09-21T13:08:02.878Z,2.73
2018-09-21T13:14:06.575Z,3.67
2018-09-21T13:20:10.099Z,3.83
2018-09-21T13:26:13.540Z,0.90
2018-09-21T13:32:16.954Z,2.23
2018-09-21T13:38:20.510Z,2.40
2018-09-21T13:44:23.872Z,2.27
2018-09-21T13:50:27.297Z,1.93
2018-09-21T13:56:30.891Z,2.73
2018-09-21T14:02:35.060Z,0.90
2018-09-21T14:08:39.294Z,1.03
2018-09-21T14:14:44.282Z,0.60
2018-09-21T14:20:48.487Z,1.83
2018-09-21T14:26:52.094Z,1.37
2018-09-21T14:32:55.973Z,0.90
2018-09-21T14:39:00.497Z,2.63
2018-09-21T14:45:04.312Z,2.13
2018-09-21T14:51:08.427Z,3.53
2018-09-21T14:57:12.046Z,1.17
2018-09-21T15:03:15.946Z,5.40
2018-09-21T15:09:19.695Z,3.63
2018-09-21T15:15:24.077Z,2.83
2018-09-21T15:21:28.517Z,3.27
2018-09-21T15:27:32.564Z,1.63
2018-09-21T15:33:37.036Z,3.43
2018-09-21T15:39:41.712Z,2.50
2018-09-21T15:45:45.758Z,2.73
2018-09-21T15:51:50.749Z,1.43
2018-09-21T15:57:55.460Z,3.30
2018-09-21T16:04:01.162Z,1.20
2018-09-21T16:10:04.743Z,5.33
2018-09-21T16:16:09.764Z,7.73
2018-09-21T16:22:13.688Z,3.13
2018-09-21T16:28:17.851Z,1.13
2018-09-21T16:34:22.495Z,1.33
2018-09-21T16:40:26.971Z,1.10
2018-09-21T16:46:31.781Z,3.73
2018-09-21T16:52:36.528Z,4.20
2018-09-21T16:58:40.043Z,3.03
2018-09-21T17:04:44.732Z,3.97
2018-09-21T17:10:48.934Z,2.13
2018-09-21T17:16:53.189Z,1.70
2018-09-21T17:22:57.177Z,4.23
2018-09-21T17:29:02.960Z,2.40
2018-09-21T17:35:06.750Z,2.27
2018-09-21T17:47:53.270Z,1.80
2018-09-21T17:53:57.268Z,4.83
2018-09-21T18:00:01.579Z,4.97
2018-09-21T18:06:06.767Z,6.53
2018-09-21T18:12:12.955Z,4.07
2018-09-21T18:18:16.494Z,10.03
2018-09-21T18:24:20.005Z,3.53
2018-09-21T18:30:24.927Z,2.83
2018-09-21T18:36:28.974Z,2.40
2018-09-21T18:42:33.594Z,9.53
2018-09-21T18:48:39.139Z,6.50
2018-09-21T18:54:43.916Z,3.10
2018-09-21T19:00:48.654Z,6.57
2018-09-21T19:06:53.623Z,6.40
2018-09-21T19:12:59.372Z,4.47
2018-09-21T19:19:04.801Z,3.93
2018-09-21T19:25:15.126Z,3.37
2018-09-21T19:31:19.338Z,4.33
2018-09-21T19:37:23.987Z,4.93
2018-09-21T19:43:28.333Z,4.80
2018-09-21T19:49:33.724Z,6.47
2018-09-21T19:55:44.596Z,4.77
2018-09-21T20:01:54.267Z,5.20
2018-09-21T20:08:00.934Z,3.63
2018-09-21T20:14:07.772Z,4.30
2018-09-21T20:20:13.391Z,4.97
2018-09-21T20:27:27.382Z,6.87
2018-09-21T20:33:32.672Z,6.43
2018-09-21T20:39:37.160Z,4.57
2018-09-21T20:45:41.161Z,7.23
2018-09-21T20:51:45.986Z,4.33
2018-09-21T20:57:50.246Z,5.37
2018-09-21T21:03:55.066Z,6.20
2018-09-21T21:10:05.244Z,15.97
2018-09-21T21:16:09.477Z,3.23
2018-09-21T21:22:13.469Z,8.67
2018-09-21T21:28:18.075Z,9.10
2018-09-21T21:34:22.115Z,7.20
2018-09-21T21:40:26.092Z,4.23
2018-09-21T21:46:31.263Z,7.53
2018-09-21T21:52:35.493Z,6.63
2018-09-21T21:58:39.233Z,12.17
2018-09-21T22:04:43.786Z,9.83
2018-09-21T22:10:47.681Z,6.50
2018-09-21T22:16:51.373Z,12.30
2018-09-21T22:22:56.109Z,12.20
2018-09-21T22:29:00.214Z,11.07
2018-09-21T22:35:03.998Z,10.10
2018-09-21T22:41:08.781Z,9.83
2018-09-21T22:47:12.565Z,9.20
2018-09-21T22:53:16.325Z,11.10
2018-09-21T22:59:26.954Z,12.63
2018-09-21T23:05:30.758Z,11.47
2018-09-21T23:11:35.257Z,10.03
2018-09-21T23:17:39.627Z,6.73
2018-09-21T23:23:43.470Z,13.97
2018-09-21T23:29:47.573Z,11.93
2018-09-21T23:35:51.341Z,14.63
2018-09-21T23:41:56.113Z,8.97
2018-09-21T23:47:59.810Z,12.87
2018-09-21T23:54:03.660Z,11.83
